createdAt,value
2023-04-10T00:03:18.057Z,12.45
2023-04-10T00:07:00.232Z,13.40
2023-04-10T00:10:41.945Z,13.32
2023-04-10T00:14:24.531Z,11.55
2023-04-10T00:18:06.443Z,14.00
2023-04-10T00:21:48.297Z,11.80
2023-04-10T00:25:30.362Z,11.45
2023-04-10T00:29:12.175Z,11.60
2023-04-10T00:32:53.923Z,10.65
2023-04-10T00:36:36.017Z,9.98
2023-04-10T00:40:17.790Z,9.95
2023-04-10T00:44:00.280Z,7.93
2023-04-10T00:47:42.188Z,10.02
2023-04-10T00:51:26.528Z,7.88
2023-04-10T00:55:08.959Z,8.00
2023-04-10T00:58:50.764Z,7.40
2023-04-10T01:02:32.603Z,6.20
2023-04-10T01:06:42.370Z,5.65
2023-04-10T01:10:36.683Z,5.25
2023-04-10T01:14:41.483Z,4.68
2023-04-10T01:18:26.321Z,3.65
2023-04-10T01:22:11.908Z,3.25
2023-04-10T01:26:01.327Z,3.63
2023-04-10T01:29:49.733Z,2.83
2023-04-10T01:33:38.917Z,2.92
2023-04-10T01:37:48.543Z,2.30
2023-04-10T01:41:32.927Z,2.20
2023-04-10T01:45:19.841Z,2.10
2023-04-10T01:49:03.324Z,1.73
2023-04-10T01:52:46.834Z,1.80
2023-04-10T01:56:29.073Z,1.35
2023-04-10T02:00:11.633Z,1.70
2023-04-10T02:03:53.964Z,1.13
2023-04-10T02:07:46.262Z,1.00
2023-04-10T02:11:42.704Z,1.05
2023-04-10T02:15:27.733Z,1.00
2023-04-10T02:19:11.028Z,0.50
2023-04-10T02:22:54.354Z,0.52
2023-04-10T02:26:50.941Z,0.40
2023-04-10T02:30:33.318Z,0.45
2023-04-10T02:34:15.074Z,0.70
2023-04-10T02:37:56.910Z,0.90
2023-04-10T02:41:38.630Z,0.60
2023-04-10T02:45:20.371Z,0.85
2023-04-10T02:49:02.223Z,1.23
2023-04-10T02:52:44.260Z,1.30
2023-04-10T02:56:27.141Z,0.90
2023-04-10T03:00:09.681Z,1.00
2023-04-10T03:03:51.557Z,0.90
2023-04-10T03:07:33.969Z,1.60
2023-04-10T03:11:15.693Z,1.40
2023-04-10T03:14:57.465Z,1.88
2023-04-10T03:18:39.165Z,1.63
2023-04-10T03:22:21.047Z,2.05
2023-04-10T03:26:04.662Z,1.55
2023-04-10T03:29:46.526Z,1.17
2023-04-10T03:33:28.309Z,0.90
2023-04-10T03:37:10.520Z,1.13
2023-04-10T03:40:53.837Z,1.05
2023-04-10T03:44:35.903Z,1.00
2023-04-10T03:48:18.048Z,1.30
2023-04-10T03:51:59.801Z,1.15
2023-04-10T03:55:41.517Z,1.40
2023-04-10T03:59:31.006Z,1.08
2023-04-10T04:03:19.501Z,1.90
2023-04-10T04:07:01.484Z,1.92
2023-04-10T04:10:43.241Z,1.60
2023-04-10T04:14:25.027Z,1.38
2023-04-10T04:18:06.767Z,1.48
2023-04-10T04:21:48.574Z,1.20
2023-04-10T04:25:30.367Z,1.77
2023-04-10T04:29:12.139Z,2.22
2023-04-10T04:32:53.968Z,1.48
2023-04-10T04:36:35.865Z,1.65
2023-04-10T04:40:17.585Z,1.92
2023-04-10T04:44:01.930Z,1.58
2023-04-10T04:47:43.769Z,1.10
2023-04-10T04:51:25.790Z,1.52
2023-04-10T04:55:08.678Z,1.73
2023-04-10T04:58:50.430Z,1.08
2023-04-10T05:02:32.274Z,0.85
2023-04-10T05:06:14.522Z,0.90
2023-04-10T05:09:56.749Z,1.00
2023-04-10T05:13:38.568Z,1.20
2023-04-10T05:17:20.426Z,0.95
2023-04-10T05:21:02.326Z,0.90
2023-04-10T05:24:44.104Z,1.00
2023-04-10T05:28:25.942Z,0.98
2023-04-10T05:32:07.797Z,0.90
2023-04-10T05:35:49.604Z,0.90
2023-04-10T05:39:31.888Z,1.40
2023-04-10T05:43:13.796Z,1.33
2023-04-10T05:46:55.514Z,1.30
2023-04-10T05:50:37.276Z,1.17
2023-04-10T05:54:19.294Z,1.30
2023-04-10T05:58:01.126Z,1.13
2023-04-10T06:01:44.325Z,1.17
2023-04-10T06:05:26.251Z,1.23
2023-04-10T06:09:08.132Z,1.00
2023-04-10T06:12:49.842Z,0.85
2023-04-10T06:16:32.025Z,0.80
2023-04-10T06:20:13.935Z,0.68
2023-04-10T06:23:55.845Z,0.80
2023-04-10T06:27:37.651Z,0.68
2023-04-10T06:31:23.007Z,0.60
2023-04-10T06:35:05.316Z,0.68
2023-04-10T06:38:47.168Z,0.47
2023-04-10T06:42:28.944Z,0.55
2023-04-10T06:46:10.751Z,0.40
2023-04-10T06:49:52.534Z,0.40
2023-04-10T06:53:34.311Z,0.40
2023-04-10T06:57:16.133Z,0.40
2023-04-10T07:00:58.884Z,0.40
2023-04-10T07:04:40.800Z,0.30
2023-04-10T07:08:22.600Z,0.10
2023-04-10T07:12:04.500Z,0.10
2023-04-10T07:15:46.617Z,0.20
2023-04-10T07:19:28.362Z,0.10
2023-04-10T07:23:10.629Z,0.20
2023-04-10T07:26:52.549Z,0.20
2023-04-10T07:30:34.463Z,0.10
2023-04-10T07:34:16.232Z,0.20
2023-04-10T07:37:58.032Z,0.10
2023-04-10T07:41:40.366Z,0.10
2023-04-10T07:45:22.322Z,0.25
2023-04-10T07:49:04.869Z,0.20
2023-04-10T07:52:48.508Z,0.10
2023-04-10T07:56:33.376Z,0.20
2023-04-10T08:00:16.496Z,0.30
2023-04-10T08:03:58.775Z,0.40
2023-04-10T08:07:41.146Z,0.30
2023-04-10T08:11:26.183Z,0.30
2023-04-10T08:15:08.321Z,0.55
2023-04-10T08:18:50.356Z,0.85
2023-04-10T08:22:32.166Z,0.88
2023-04-10T08:26:14.103Z,2.83
2023-04-10T08:29:56.108Z,1.55
2023-04-10T08:33:37.838Z,0.80
2023-04-10T08:37:21.376Z,0.77
2023-04-10T08:41:03.308Z,0.60
2023-04-10T08:44:45.959Z,0.70
2023-04-10T08:48:35.551Z,0.80
2023-04-10T08:52:22.618Z,0.73
2023-04-10T08:56:05.452Z,1.35
2023-04-10T08:59:48.601Z,0.93
2023-04-10T09:03:31.069Z,1.10
2023-04-10T09:07:12.957Z,1.25
2023-04-10T09:10:56.333Z,1.13
2023-04-10T09:14:41.216Z,1.10
2023-04-10T09:18:22.974Z,0.95
2023-04-10T09:22:04.810Z,0.80
2023-04-10T09:25:48.323Z,1.08
2023-04-10T09:29:45.890Z,0.88
2023-04-10T09:33:29.979Z,0.80
2023-04-10T09:37:12.773Z,1.35
2023-04-10T09:41:09.478Z,0.88
2023-04-10T09:44:55.595Z,1.08
2023-04-10T09:48:37.643Z,1.07
2023-04-10T09:52:21.881Z,1.35
2023-04-10T09:56:05.286Z,1.10
2023-04-10T09:59:52.557Z,1.10
2023-04-10T10:03:34.404Z,1.63
2023-04-10T10:07:17.737Z,1.45
2023-04-10T10:11:03.571Z,1.95
2023-04-10T10:14:56.052Z,1.65
2023-04-10T10:19:10.985Z,1.70
2023-04-10T10:22:53.501Z,1.25
2023-04-10T10:26:38.704Z,1.60
2023-04-10T10:34:09.259Z,1.98
2023-04-10T10:37:51.683Z,1.77
2023-04-10T10:41:41.312Z,1.45
2023-04-10T10:45:57.329Z,2.05
2023-04-10T10:49:56.973Z,1.70
2023-04-10T10:53:40.371Z,1.75
2023-04-10T10:57:47.835Z,2.00
2023-04-10T11:01:31.164Z,1.48
2023-04-10T11:05:52.359Z,2.00
2023-04-10T11:09:54.492Z,1.85
2023-04-10T11:13:56.691Z,1.65
2023-04-10T11:17:49.707Z,1.70
2023-04-10T11:21:32.100Z,1.95
2023-04-10T11:25:13.897Z,1.63
2023-04-10T11:28:56.030Z,1.27
2023-04-10T11:32:45.232Z,1.20
2023-04-10T11:36:27.355Z,1.40
2023-04-10T11:40:09.575Z,1.40
2023-04-10T11:43:54.164Z,1.73
2023-04-10T11:47:36.017Z,1.40
2023-04-10T11:51:17.845Z,1.35
2023-04-10T11:54:59.577Z,1.85
2023-04-10T11:58:41.302Z,1.30
2023-04-10T12:02:23.122Z,1.55
2023-04-10T12:06:08.141Z,1.42
2023-04-10T12:09:57.609Z,1.35
2023-04-10T12:13:39.553Z,1.10
2023-04-10T12:17:21.420Z,1.40
2023-04-10T12:21:05.530Z,1.27
2023-04-10T12:24:53.565Z,1.57
2023-04-10T12:28:37.796Z,1.63
2023-04-10T12:32:20.170Z,2.00
2023-04-10T12:36:02.513Z,1.42
2023-04-10T12:39:44.264Z,1.38
2023-04-10T12:43:38.346Z,1.08
2023-04-10T12:47:20.392Z,1.10
2023-04-10T12:51:02.708Z,0.68
2023-04-10T12:54:44.447Z,1.20
2023-04-10T12:58:31.041Z,1.38
2023-04-10T13:02:12.903Z,1.25
2023-04-10T13:05:54.848Z,1.30
2023-04-10T13:09:37.282Z,1.70
2023-04-10T13:13:19.021Z,1.50
2023-04-10T13:17:00.829Z,1.65
2023-04-10T13:20:42.615Z,1.40
2023-04-10T13:24:24.368Z,1.45
2023-04-10T13:28:11.082Z,1.35
2023-04-10T13:31:52.905Z,1.23
2023-04-10T13:35:34.851Z,1.25
2023-04-10T13:39:18.513Z,1.35
2023-04-10T13:43:00.334Z,1.25
2023-04-10T13:46:42.145Z,1.27
2023-04-10T13:50:23.981Z,1.25
2023-04-10T13:54:06.537Z,1.20
2023-04-10T13:57:48.276Z,1.15
2023-04-10T14:01:30.273Z,1.05
2023-04-10T14:05:12.075Z,1.83
2023-04-10T14:08:54.068Z,1.67
2023-04-10T14:12:37.570Z,1.50
2023-04-10T14:16:19.955Z,1.65
2023-04-10T14:20:02.152Z,1.95
2023-04-10T14:23:43.906Z,2.08
2023-04-10T14:27:25.732Z,1.50
2023-04-10T14:31:08.038Z,0.93
2023-04-10T14:34:49.886Z,1.20
2023-04-10T14:38:31.721Z,1.33
2023-04-10T14:42:13.509Z,1.65
2023-04-10T14:45:55.333Z,1.25
2023-04-10T14:49:37.113Z,1.70
2023-04-10T14:53:18.910Z,1.58
2023-04-10T14:57:01.978Z,1.48
2023-04-10T15:00:44.372Z,1.52
2023-04-10T15:04:26.243Z,2.25
2023-04-10T15:08:08.009Z,1.80
2023-04-10T15:11:49.726Z,1.98
2023-04-10T15:15:31.454Z,1.88
2023-04-10T15:19:13.286Z,2.30
2023-04-10T15:22:55.005Z,1.77
2023-04-10T15:26:36.760Z,1.70
2023-04-10T15:30:19.219Z,2.17
2023-04-10T15:34:00.972Z,1.80
2023-04-10T15:37:42.751Z,1.70
2023-04-10T15:41:24.472Z,2.15
2023-04-10T15:45:06.700Z,1.30
2023-04-10T15:48:48.440Z,1.75
2023-04-10T15:52:32.664Z,1.50
2023-04-10T15:56:16.185Z,1.90
2023-04-10T16:00:00.492Z,2.30
2023-04-10T16:03:42.543Z,1.63
2023-04-10T16:07:24.718Z,2.42
2023-04-10T16:11:06.743Z,2.30
2023-04-10T16:14:48.532Z,2.20
2023-04-10T16:18:30.463Z,2.00
2023-04-10T16:22:12.210Z,1.70
2023-04-10T16:25:53.932Z,1.70
2023-04-10T16:29:36.130Z,1.98
2023-04-10T16:33:17.939Z,1.83
2023-04-10T16:36:59.666Z,2.25
2023-04-10T16:40:41.431Z,1.85
2023-04-10T16:44:23.181Z,2.83
2023-04-10T16:48:05.022Z,2.28
2023-04-10T16:51:46.804Z,2.20
2023-04-10T16:55:28.536Z,2.50
2023-04-10T16:59:10.317Z,2.05
2023-04-10T17:02:52.223Z,1.95
2023-04-10T17:06:33.976Z,2.25
2023-04-10T17:10:15.920Z,1.50
2023-04-10T17:13:57.649Z,1.65
2023-04-10T17:17:39.428Z,1.52
2023-04-10T17:21:21.248Z,2.33
2023-04-10T17:25:03.034Z,2.55
2023-04-10T17:28:46.252Z,2.83
2023-04-10T17:32:28.102Z,1.90
2023-04-10T17:36:12.266Z,2.03
2023-04-10T17:39:54.581Z,1.73
2023-04-10T17:43:36.319Z,1.70
2023-04-10T17:47:18.136Z,1.67
2023-04-10T17:51:05.029Z,2.30
2023-04-10T17:54:46.748Z,2.38
2023-04-10T17:58:28.487Z,2.45
2023-04-10T18:02:10.286Z,1.70
2023-04-10T18:05:52.103Z,2.30
2023-04-10T18:09:33.900Z,1.42
2023-04-10T18:13:15.814Z,2.15
2023-04-10T18:16:57.597Z,1.42
2023-04-10T18:20:39.378Z,2.28
2023-04-10T18:24:21.201Z,2.22
2023-04-10T18:31:47.597Z,1.70
2023-04-10T18:35:31.292Z,1.88
2023-04-10T18:39:13.247Z,1.55
2023-04-10T18:42:55.030Z,2.42
2023-04-10T18:46:37.054Z,2.38
2023-04-10T18:50:18.969Z,1.92
2023-04-10T18:54:00.749Z,1.83
2023-04-10T18:57:42.540Z,2.20
2023-04-10T19:01:24.452Z,2.00
2023-04-10T19:05:07.059Z,1.73
2023-04-10T19:08:48.942Z,1.70
2023-04-10T19:12:30.801Z,2.25
2023-04-10T19:16:14.718Z,2.58
2023-04-10T19:19:57.987Z,3.00
2023-04-10T19:23:40.281Z,2.28
2023-04-10T19:27:22.245Z,2.60
2023-04-10T19:31:04.181Z,3.08
2023-04-10T19:34:51.174Z,1.80
2023-04-10T19:38:33.024Z,2.60
2023-04-10T19:42:15.020Z,2.50
2023-04-10T19:45:59.880Z,2.40
2023-04-10T19:49:41.805Z,1.85
2023-04-10T19:53:23.627Z,2.33
2023-04-10T19:57:05.700Z,1.90
2023-04-10T20:00:47.578Z,2.78
2023-04-10T20:04:29.653Z,2.30
2023-04-10T20:08:11.642Z,2.13
2023-04-10T20:11:53.439Z,2.35
2023-04-10T20:15:35.633Z,1.55
2023-04-10T20:19:18.001Z,2.38
2023-04-10T20:22:59.813Z,1.88
2023-04-10T20:26:41.898Z,2.08
2023-04-10T20:30:23.738Z,2.55
2023-04-10T20:34:05.758Z,2.17
2023-04-10T20:37:48.290Z,2.50
2023-04-10T20:41:30.158Z,2.25
2023-04-10T20:45:12.290Z,1.92
2023-04-10T20:48:55.702Z,2.53
2023-04-10T20:52:37.660Z,1.77
2023-04-10T20:56:21.140Z,1.95
2023-04-10T21:00:04.943Z,2.22
2023-04-10T21:03:46.843Z,2.50
2023-04-10T21:07:28.796Z,1.85
2023-04-10T21:11:10.735Z,2.50
2023-04-10T21:14:52.500Z,2.90
2023-04-10T21:18:34.234Z,2.13
2023-04-10T21:22:16.044Z,2.58
2023-04-10T21:25:57.818Z,2.15
2023-04-10T21:29:39.604Z,2.60
2023-04-10T21:33:21.328Z,2.47
2023-04-10T21:37:03.033Z,2.50
2023-04-10T21:40:54.782Z,2.60
2023-04-10T21:44:36.518Z,1.58
2023-04-10T21:48:20.500Z,2.60
2023-04-10T21:52:02.265Z,2.10
2023-04-10T21:55:44.037Z,2.15
2023-04-10T21:59:25.960Z,2.45
2023-04-10T22:03:09.360Z,1.80
2023-04-10T22:06:51.247Z,2.28
2023-04-10T22:10:32.987Z,1.92
2023-04-10T22:14:18.077Z,2.05
2023-04-10T22:18:01.199Z,1.65
2023-04-10T22:21:43.140Z,1.95
2023-04-10T22:25:25.366Z,2.45
2023-04-10T22:29:07.092Z,2.45
2023-04-10T22:32:48.893Z,1.67
2023-04-10T22:36:34.078Z,1.67
2023-04-10T22:40:15.841Z,1.83
2023-04-10T22:43:57.773Z,1.75
2023-04-10T22:47:39.522Z,1.77
2023-04-10T22:51:21.316Z,2.55
2023-04-10T22:55:04.800Z,2.05
2023-04-10T22:58:46.509Z,1.85
2023-04-10T23:02:28.390Z,1.80
2023-04-10T23:06:10.223Z,3.00
2023-04-10T23:09:51.950Z,2.28
2023-04-10T23:13:33.709Z,2.25
2023-04-10T23:17:15.449Z,1.70
2023-04-10T23:20:57.167Z,2.08
2023-04-10T23:24:38.963Z,2.22
2023-04-10T23:28:22.462Z,1.52
2023-04-10T23:32:04.331Z,2.63
2023-04-10T23:35:46.167Z,2.10
2023-04-10T23:39:27.916Z,1.98
2023-04-10T23:43:09.641Z,2.33
2023-04-10T23:46:51.495Z,1.85
2023-04-10T23:50:33.269Z,2.30
2023-04-10T23:54:15.378Z,1.90
2023-04-10T23:57:57.096Z,1.95
